sensor_id;sensor_type;location;lat;lon;timestamp;P1;durP1;ratioP1;P2;durP2;ratioP2
63282;SDS011;49407;51.388;0.048;2022-11-24T00:01:24;19.30;;;17.65;;
63282;SDS011;49407;51.388;0.048;2022-11-24T00:03:54;29.13;;;26.70;;
63282;SDS011;49407;51.388;0.048;2022-11-24T00:06:24;25.13;;;23.10;;
63282;SDS011;49407;51.388;0.048;2022-11-24T00:08:52;25.15;;;23.02;;
63282;SDS011;49407;51.388;0.048;2022-11-24T00:11:20;23.83;;;21.50;;
63282;SDS011;49407;51.388;0.048;2022-11-24T00:13:49;27.00;;;25.08;;
63282;SDS011;49407;51.388;0.048;2022-11-24T00:16:18;26.30;;;23.80;;
63282;SDS011;49407;51.388;0.048;2022-11-24T00:18:48;28.55;;;26.63;;
63282;SDS011;49407;51.388;0.048;2022-11-24T00:21:17;23.15;;;21.35;;
63282;SDS011;49407;51.388;0.048;2022-11-24T00:23:45;28.95;;;26.67;;
63282;SDS011;49407;51.388;0.048;2022-11-24T00:29:02;24.75;;;22.42;;
63282;SDS011;49407;51.388;0.048;2022-11-24T00:31:34;22.27;;;20.20;;
63282;SDS011;49407;51.388;0.048;2022-11-24T00:34:04;23.60;;;20.63;;
63282;SDS011;49407;51.388;0.048;2022-11-24T00:36:37;24.85;;;22.70;;
63282;SDS011;49407;51.388;0.048;2022-11-24T00:39:05;22.80;;;20.65;;
63282;SDS011;49407;51.388;0.048;2022-11-24T00:41:35;22.42;;;20.23;;
63282;SDS011;49407;51.388;0.048;2022-11-24T00:44:02;32.33;;;25.80;;
63282;SDS011;49407;51.388;0.048;2022-11-24T00:46:30;20.83;;;18.73;;
63282;SDS011;49407;51.388;0.048;2022-11-24T00:48:57;20.38;;;18.00;;
63282;SDS011;49407;51.388;0.048;2022-11-24T00:51:25;20.45;;;17.98;;
63282;SDS011;49407;51.388;0.048;2022-11-24T00:53:55;25.75;;;19.52;;
63282;SDS011;49407;51.388;0.048;2022-11-24T00:56:24;21.00;;;18.65;;
63282;SDS011;49407;51.388;0.048;2022-11-24T00:58:52;23.75;;;21.10;;
63282;SDS011;49407;51.388;0.048;2022-11-24T01:01:23;21.63;;;19.00;;
63282;SDS011;49407;51.388;0.048;2022-11-24T01:03:51;22.25;;;18.75;;
63282;SDS011;49407;51.388;0.048;2022-11-24T01:06:22;17.65;;;15.77;;
63282;SDS011;49407;51.388;0.048;2022-11-24T01:08:50;21.35;;;19.30;;
63282;SDS011;49407;51.388;0.048;2022-11-24T01:11:20;23.08;;;19.60;;
63282;SDS011;49407;51.388;0.048;2022-11-24T01:13:56;30.00;;;27.25;;
63282;SDS011;49407;51.388;0.048;2022-11-24T01:16:27;20.10;;;17.38;;
63282;SDS011;49407;51.388;0.048;2022-11-24T01:18:59;21.27;;;19.15;;
63282;SDS011;49407;51.388;0.048;2022-11-24T01:21:26;20.73;;;18.80;;
63282;SDS011;49407;51.388;0.048;2022-11-24T01:23:53;27.15;;;24.80;;
63282;SDS011;49407;51.388;0.048;2022-11-24T01:26:21;20.98;;;17.58;;
63282;SDS011;49407;51.388;0.048;2022-11-24T01:28:52;21.75;;;18.98;;
63282;SDS011;49407;51.388;0.048;2022-11-24T01:31:20;22.00;;;19.73;;
63282;SDS011;49407;51.388;0.048;2022-11-24T01:33:48;23.95;;;19.90;;
63282;SDS011;49407;51.388;0.048;2022-11-24T01:36:15;24.58;;;22.30;;
63282;SDS011;49407;51.388;0.048;2022-11-24T01:38:42;25.83;;;19.60;;
63282;SDS011;49407;51.388;0.048;2022-11-24T01:41:27;21.38;;;19.33;;
63282;SDS011;49407;51.388;0.048;2022-11-24T01:43:54;29.38;;;19.52;;
63282;SDS011;49407;51.388;0.048;2022-11-24T01:51:35;22.55;;;20.27;;
63282;SDS011;49407;51.388;0.048;2022-11-24T01:54:24;22.02;;;19.73;;
63282;SDS011;49407;51.388;0.048;2022-11-24T01:56:57;22.42;;;20.00;;
63282;SDS011;49407;51.388;0.048;2022-11-24T01:59:28;20.52;;;18.45;;
63282;SDS011;49407;51.388;0.048;2022-11-24T02:01:55;21.85;;;18.40;;
63282;SDS011;49407;51.388;0.048;2022-11-24T02:04:23;22.05;;;20.00;;
63282;SDS011;49407;51.388;0.048;2022-11-24T02:06:56;24.48;;;22.23;;
63282;SDS011;49407;51.388;0.048;2022-11-24T02:09:35;21.88;;;19.65;;
63282;SDS011;49407;51.388;0.048;2022-11-24T02:12:25;20.70;;;18.65;;
63282;SDS011;49407;51.388;0.048;2022-11-24T02:14:53;23.83;;;21.35;;
63282;SDS011;49407;51.388;0.048;2022-11-24T02:17:23;20.23;;;18.55;;
63282;SDS011;49407;51.388;0.048;2022-11-24T02:22:31;22.25;;;20.52;;
63282;SDS011;49407;51.388;0.048;2022-11-24T02:25:08;19.90;;;18.13;;
63282;SDS011;49407;51.388;0.048;2022-11-24T02:27:58;21.33;;;19.92;;
63282;SDS011;49407;51.388;0.048;2022-11-24T02:30:27;20.85;;;19.17;;
63282;SDS011;49407;51.388;0.048;2022-11-24T02:32:54;21.00;;;19.02;;
63282;SDS011;49407;51.388;0.048;2022-11-24T02:35:21;20.85;;;18.65;;
63282;SDS011;49407;51.388;0.048;2022-11-24T02:37:48;20.77;;;18.77;;
63282;SDS011;49407;51.388;0.048;2022-11-24T02:40:17;13.73;;;13.15;;
63282;SDS011;49407;51.388;0.048;2022-11-24T02:42:54;21.85;;;19.73;;
63282;SDS011;49407;51.388;0.048;2022-11-24T02:45:26;20.23;;;18.52;;
63282;SDS011;49407;51.388;0.048;2022-11-24T02:50:24;24.02;;;21.55;;
63282;SDS011;49407;51.388;0.048;2022-11-24T02:52:51;22.73;;;20.45;;
63282;SDS011;49407;51.388;0.048;2022-11-24T02:55:18;19.40;;;17.75;;
63282;SDS011;49407;51.388;0.048;2022-11-24T02:57:45;22.80;;;19.52;;
63282;SDS011;49407;51.388;0.048;2022-11-24T03:00:12;22.38;;;20.23;;
63282;SDS011;49407;51.388;0.048;2022-11-24T03:02:40;20.23;;;17.75;;
63282;SDS011;49407;51.388;0.048;2022-11-24T03:05:07;21.30;;;18.90;;
63282;SDS011;49407;51.388;0.048;2022-11-24T03:07:34;12.27;;;11.77;;
63282;SDS011;49407;51.388;0.048;2022-11-24T03:10:01;22.52;;;19.15;;
63282;SDS011;49407;51.388;0.048;2022-11-24T03:12:28;20.98;;;18.83;;
63282;SDS011;49407;51.388;0.048;2022-11-24T03:14:55;25.63;;;18.67;;
63282;SDS011;49407;51.388;0.048;2022-11-24T03:17:23;25.40;;;19.30;;
63282;SDS011;49407;51.388;0.048;2022-11-24T03:19:50;22.08;;;19.85;;
63282;SDS011;49407;51.388;0.048;2022-11-24T03:22:17;22.15;;;20.17;;
63282;SDS011;49407;51.388;0.048;2022-11-24T03:24:44;25.20;;;22.00;;
63282;SDS011;49407;51.388;0.048;2022-11-24T03:27:12;30.40;;;21.52;;
63282;SDS011;49407;51.388;0.048;2022-11-24T03:29:39;21.30;;;19.08;;
63282;SDS011;49407;51.388;0.048;2022-11-24T03:32:06;24.80;;;18.40;;
63282;SDS011;49407;51.388;0.048;2022-11-24T03:34:33;30.52;;;23.05;;
63282;SDS011;49407;51.388;0.048;2022-11-24T03:37:01;25.30;;;19.67;;
63282;SDS011;49407;51.388;0.048;2022-11-24T03:39:28;14.25;;;13.27;;
63282;SDS011;49407;51.388;0.048;2022-11-24T03:41:55;13.55;;;12.57;;
63282;SDS011;49407;51.388;0.048;2022-11-24T03:44:21;24.55;;;20.52;;
63282;SDS011;49407;51.388;0.048;2022-11-24T03:46:49;26.92;;;21.48;;
63282;SDS011;49407;51.388;0.048;2022-11-24T03:49:17;26.30;;;20.65;;
63282;SDS011;49407;51.388;0.048;2022-11-24T03:51:44;23.45;;;21.15;;
63282;SDS011;49407;51.388;0.048;2022-11-24T03:54:10;24.70;;;20.00;;
63282;SDS011;49407;51.388;0.048;2022-11-24T03:56:39;24.40;;;19.77;;
63282;SDS011;49407;51.388;0.048;2022-11-24T03:59:05;22.92;;;20.40;;
63282;SDS011;49407;51.388;0.048;2022-11-24T04:01:32;23.15;;;18.27;;
63282;SDS011;49407;51.388;0.048;2022-11-24T04:03:59;23.23;;;20.73;;
63282;SDS011;49407;51.388;0.048;2022-11-24T04:06:26;25.63;;;20.13;;
63282;SDS011;49407;51.388;0.048;2022-11-24T04:08:53;24.25;;;19.85;;
63282;SDS011;49407;51.388;0.048;2022-11-24T04:11:20;22.80;;;17.63;;
63282;SDS011;49407;51.388;0.048;2022-11-24T04:14:06;24.55;;;21.50;;
63282;SDS011;49407;51.388;0.048;2022-11-24T04:16:39;14.43;;;13.33;;
63282;SDS011;49407;51.388;0.048;2022-11-24T04:19:06;29.65;;;20.75;;
63282;SDS011;49407;51.388;0.048;2022-11-24T04:21:33;27.02;;;22.50;;
63282;SDS011;49407;51.388;0.048;2022-11-24T04:24:00;25.23;;;20.73;;
63282;SDS011;49407;51.388;0.048;2022-11-24T04:26:27;26.45;;;20.83;;
63282;SDS011;49407;51.388;0.048;2022-11-24T04:28:54;24.15;;;18.45;;
63282;SDS011;49407;51.388;0.048;2022-11-24T04:31:20;26.55;;;19.45;;
63282;SDS011;49407;51.388;0.048;2022-11-24T04:33:47;28.13;;;20.30;;
63282;SDS011;49407;51.388;0.048;2022-11-24T04:36:14;12.07;;;11.15;;
63282;SDS011;49407;51.388;0.048;2022-11-24T04:38:41;28.58;;;19.42;;
63282;SDS011;49407;51.388;0.048;2022-11-24T04:41:28;36.50;;;20.33;;
63282;SDS011;49407;51.388;0.048;2022-11-24T04:43:55;31.67;;;20.40;;
63282;SDS011;49407;51.388;0.048;2022-11-24T04:46:22;33.15;;;22.13;;
63282;SDS011;49407;51.388;0.048;2022-11-24T04:48:48;26.00;;;21.25;;
63282;SDS011;49407;51.388;0.048;2022-11-24T04:51:15;27.55;;;21.10;;
63282;SDS011;49407;51.388;0.048;2022-11-24T04:53:42;30.00;;;22.20;;
63282;SDS011;49407;51.388;0.048;2022-11-24T04:56:09;29.58;;;20.60;;
63282;SDS011;49407;51.388;0.048;2022-11-24T04:58:36;26.75;;;21.45;;
63282;SDS011;49407;51.388;0.048;2022-11-24T05:01:05;28.13;;;21.65;;
63282;SDS011;49407;51.388;0.048;2022-11-24T05:03:34;28.52;;;18.95;;
63282;SDS011;49407;51.388;0.048;2022-11-24T05:06:01;34.53;;;21.90;;
63282;SDS011;49407;51.388;0.048;2022-11-24T05:08:28;34.58;;;22.00;;
63282;SDS011;49407;51.388;0.048;2022-11-24T05:10:55;24.25;;;19.35;;
63282;SDS011;49407;51.388;0.048;2022-11-24T05:13:22;35.65;;;23.27;;
63282;SDS011;49407;51.388;0.048;2022-11-24T05:15:49;29.83;;;21.83;;
63282;SDS011;49407;51.388;0.048;2022-11-24T05:18:16;26.27;;;19.35;;
63282;SDS011;49407;51.388;0.048;2022-11-24T05:20:43;30.45;;;19.85;;
63282;SDS011;49407;51.388;0.048;2022-11-24T05:23:10;32.78;;;22.15;;
63282;SDS011;49407;51.388;0.048;2022-11-24T05:25:37;30.52;;;22.00;;
63282;SDS011;49407;51.388;0.048;2022-11-24T05:28:08;14.45;;;11.55;;
63282;SDS011;49407;51.388;0.048;2022-11-24T05:30:38;29.63;;;21.73;;
63282;SDS011;49407;51.388;0.048;2022-11-24T05:33:06;31.45;;;21.83;;
63282;SDS011;49407;51.388;0.048;2022-11-24T05:35:36;37.95;;;19.63;;
63282;SDS011;49407;51.388;0.048;2022-11-24T05:38:03;12.98;;;12.02;;
63282;SDS011;49407;51.388;0.048;2022-11-24T05:40:31;29.10;;;20.15;;
63282;SDS011;49407;51.388;0.048;2022-11-24T05:42:58;34.80;;;21.13;;
63282;SDS011;49407;51.388;0.048;2022-11-24T05:45:24;31.42;;;23.25;;
63282;SDS011;49407;51.388;0.048;2022-11-24T05:47:51;27.67;;;21.60;;
63282;SDS011;49407;51.388;0.048;2022-11-24T05:50:19;33.25;;;21.67;;
63282;SDS011;49407;51.388;0.048;2022-11-24T05:52:48;34.65;;;23.85;;
63282;SDS011;49407;51.388;0.048;2022-11-24T05:55:15;31.30;;;20.27;;
63282;SDS011;49407;51.388;0.048;2022-11-24T05:57:42;15.88;;;14.43;;
63282;SDS011;49407;51.388;0.048;2022-11-24T06:00:09;30.15;;;22.52;;
63282;SDS011;49407;51.388;0.048;2022-11-24T06:02:39;33.08;;;22.73;;
63282;SDS011;49407;51.388;0.048;2022-11-24T06:05:07;32.75;;;21.58;;
63282;SDS011;49407;51.388;0.048;2022-11-24T06:07:36;21.25;;;12.52;;
63282;SDS011;49407;51.388;0.048;2022-11-24T06:10:04;31.55;;;19.08;;
63282;SDS011;49407;51.388;0.048;2022-11-24T06:12:31;18.58;;;14.75;;
63282;SDS011;49407;51.388;0.048;2022-11-24T06:14:58;33.40;;;22.77;;
63282;SDS011;49407;51.388;0.048;2022-11-24T06:17:27;31.02;;;21.65;;
63282;SDS011;49407;51.388;0.048;2022-11-24T06:19:54;34.35;;;20.77;;
63282;SDS011;49407;51.388;0.048;2022-11-24T06:22:20;43.78;;;22.33;;
63282;SDS011;49407;51.388;0.048;2022-11-24T06:24:47;15.73;;;14.52;;
63282;SDS011;49407;51.388;0.048;2022-11-24T06:27:16;39.28;;;24.05;;
63282;SDS011;49407;51.388;0.048;2022-11-24T06:29:43;30.15;;;21.58;;
63282;SDS011;49407;51.388;0.048;2022-11-24T06:32:10;39.53;;;23.90;;
63282;SDS011;49407;51.388;0.048;2022-11-24T06:34:36;31.10;;;21.75;;
63282;SDS011;49407;51.388;0.048;2022-11-24T06:37:03;36.78;;;20.48;;
63282;SDS011;49407;51.388;0.048;2022-11-24T06:39:30;34.72;;;21.00;;
63282;SDS011;49407;51.388;0.048;2022-11-24T06:41:57;30.08;;;20.48;;
63282;SDS011;49407;51.388;0.048;2022-11-24T06:44:24;38.13;;;22.70;;
63282;SDS011;49407;51.388;0.048;2022-11-24T06:46:51;38.13;;;21.98;;
63282;SDS011;49407;51.388;0.048;2022-11-24T06:49:18;39.65;;;23.05;;
63282;SDS011;49407;51.388;0.048;2022-11-24T06:51:45;34.53;;;21.20;;
63282;SDS011;49407;51.388;0.048;2022-11-24T06:54:13;33.35;;;22.95;;
63282;SDS011;49407;51.388;0.048;2022-11-24T06:56:42;12.98;;;12.35;;
63282;SDS011;49407;51.388;0.048;2022-11-24T06:59:14;29.42;;;20.38;;
63282;SDS011;49407;51.388;0.048;2022-11-24T07:04:10;38.95;;;24.15;;
63282;SDS011;49407;51.388;0.048;2022-11-24T07:09:43;28.95;;;20.77;;
63282;SDS011;49407;51.388;0.048;2022-11-24T07:12:11;15.02;;;14.25;;
63282;SDS011;49407;51.388;0.048;2022-11-24T07:14:37;35.80;;;24.95;;
63282;SDS011;49407;51.388;0.048;2022-11-24T07:17:08;44.78;;;25.90;;
63282;SDS011;49407;51.388;0.048;2022-11-24T07:19:35;46.45;;;28.40;;
63282;SDS011;49407;51.388;0.048;2022-11-24T07:22:01;44.92;;;27.73;;
63282;SDS011;49407;51.388;0.048;2022-11-24T07:24:28;16.40;;;15.30;;
63282;SDS011;49407;51.388;0.048;2022-11-24T07:26:56;38.03;;;23.35;;
63282;SDS011;49407;51.388;0.048;2022-11-24T07:29:23;38.28;;;23.25;;
63282;SDS011;49407;51.388;0.048;2022-11-24T07:31:50;41.90;;;23.70;;
63282;SDS011;49407;51.388;0.048;2022-11-24T07:34:17;36.05;;;23.15;;
63282;SDS011;49407;51.388;0.048;2022-11-24T07:39:31;38.03;;;25.42;;
63282;SDS011;49407;51.388;0.048;2022-11-24T07:41:58;32.35;;;24.50;;
63282;SDS011;49407;51.388;0.048;2022-11-24T07:44:25;30.85;;;23.05;;
63282;SDS011;49407;51.388;0.048;2022-11-24T07:46:53;42.50;;;26.13;;
63282;SDS011;49407;51.388;0.048;2022-11-24T07:49:20;42.13;;;29.45;;
63282;SDS011;49407;51.388;0.048;2022-11-24T07:51:47;20.10;;;16.50;;
63282;SDS011;49407;51.388;0.048;2022-11-24T07:54:14;41.10;;;25.90;;
63282;SDS011;49407;51.388;0.048;2022-11-24T07:56:41;42.05;;;26.30;;
63282;SDS011;49407;51.388;0.048;2022-11-24T07:59:07;47.78;;;30.50;;
63282;SDS011;49407;51.388;0.048;2022-11-24T08:01:34;38.70;;;28.52;;
63282;SDS011;49407;51.388;0.048;2022-11-24T08:04:01;42.72;;;32.28;;
63282;SDS011;49407;51.388;0.048;2022-11-24T08:06:31;41.40;;;29.75;;
63282;SDS011;49407;51.388;0.048;2022-11-24T08:09:08;16.40;;;15.38;;
63282;SDS011;49407;51.388;0.048;2022-11-24T08:11:35;46.60;;;30.70;;
63282;SDS011;49407;51.388;0.048;2022-11-24T08:14:02;42.03;;;31.25;;
63282;SDS011;49407;51.388;0.048;2022-11-24T08:19:16;39.38;;;27.17;;
63282;SDS011;49407;51.388;0.048;2022-11-24T08:21:43;39.65;;;27.33;;
63282;SDS011;49407;51.388;0.048;2022-11-24T08:24:10;44.45;;;29.67;;
63282;SDS011;49407;51.388;0.048;2022-11-24T08:26:40;39.78;;;28.60;;
63282;SDS011;49407;51.388;0.048;2022-11-24T08:29:07;18.30;;;16.73;;
63282;SDS011;49407;51.388;0.048;2022-11-24T08:31:36;44.17;;;28.95;;
63282;SDS011;49407;51.388;0.048;2022-11-24T08:34:04;40.53;;;30.42;;
63282;SDS011;49407;51.388;0.048;2022-11-24T08:36:33;39.78;;;27.00;;
63282;SDS011;49407;51.388;0.048;2022-11-24T08:39:00;37.97;;;25.70;;
63282;SDS011;49407;51.388;0.048;2022-11-24T08:41:27;43.47;;;25.15;;
63282;SDS011;49407;51.388;0.048;2022-11-24T08:43:56;37.42;;;23.20;;
63282;SDS011;49407;51.388;0.048;2022-11-24T08:46:39;38.22;;;27.63;;
63282;SDS011;49407;51.388;0.048;2022-11-24T08:49:06;43.88;;;27.15;;
63282;SDS011;49407;51.388;0.048;2022-11-24T08:51:33;37.38;;;27.23;;
63282;SDS011;49407;51.388;0.048;2022-11-24T08:54:00;39.53;;;24.55;;
63282;SDS011;49407;51.388;0.048;2022-11-24T08:56:29;42.75;;;31.35;;
63282;SDS011;49407;51.388;0.048;2022-11-24T08:58:58;50.33;;;28.10;;
63282;SDS011;49407;51.388;0.048;2022-11-24T09:01:25;38.25;;;27.08;;
63282;SDS011;49407;51.388;0.048;2022-11-24T09:03:53;44.75;;;28.17;;
63282;SDS011;49407;51.388;0.048;2022-11-24T09:06:24;42.28;;;29.02;;
63282;SDS011;49407;51.388;0.048;2022-11-24T09:08:56;48.83;;;32.00;;
63282;SDS011;49407;51.388;0.048;2022-11-24T09:11:24;41.38;;;26.70;;
63282;SDS011;49407;51.388;0.048;2022-11-24T09:13:53;39.22;;;31.95;;
63282;SDS011;49407;51.388;0.048;2022-11-24T09:16:23;47.22;;;30.33;;
63282;SDS011;49407;51.388;0.048;2022-11-24T09:18:59;39.67;;;27.17;;
63282;SDS011;49407;51.388;0.048;2022-11-24T09:21:28;53.17;;;26.98;;
63282;SDS011;49407;51.388;0.048;2022-11-24T09:23:55;36.35;;;24.05;;
63282;SDS011;49407;51.388;0.048;2022-11-24T09:26:23;37.78;;;25.73;;
63282;SDS011;49407;51.388;0.048;2022-11-24T09:28:53;39.97;;;26.40;;
63282;SDS011;49407;51.388;0.048;2022-11-24T09:31:21;60.25;;;36.90;;
63282;SDS011;49407;51.388;0.048;2022-11-24T09:33:50;40.78;;;23.95;;
63282;SDS011;49407;51.388;0.048;2022-11-24T09:36:18;40.65;;;25.55;;
63282;SDS011;49407;51.388;0.048;2022-11-24T09:38:45;43.67;;;25.33;;
63282;SDS011;49407;51.388;0.048;2022-11-24T09:48:56;54.17;;;23.63;;
63282;SDS011;49407;51.388;0.048;2022-11-24T09:51:26;51.88;;;30.75;;
63282;SDS011;49407;51.388;0.048;2022-11-24T09:53:59;46.58;;;25.42;;
63282;SDS011;49407;51.388;0.048;2022-11-24T09:56:47;40.25;;;21.92;;
63282;SDS011;49407;51.388;0.048;2022-11-24T09:59:20;48.60;;;28.25;;
63282;SDS011;49407;51.388;0.048;2022-11-24T10:01:49;42.55;;;23.45;;
63282;SDS011;49407;51.388;0.048;2022-11-24T10:04:20;51.97;;;27.75;;
63282;SDS011;49407;51.388;0.048;2022-11-24T10:10:03;58.97;;;28.48;;
63282;SDS011;49407;51.388;0.048;2022-11-24T10:16:03;44.72;;;23.73;;
63282;SDS011;49407;51.388;0.048;2022-11-24T10:26:52;43.13;;;23.88;;
63282;SDS011;49407;51.388;0.048;2022-11-24T10:29:27;43.30;;;19.88;;
63282;SDS011;49407;51.388;0.048;2022-11-24T10:31:59;46.20;;;20.73;;
63282;SDS011;49407;51.388;0.048;2022-11-24T10:34:33;45.67;;;22.23;;
63282;SDS011;49407;51.388;0.048;2022-11-24T10:42:30;48.03;;;20.77;;
63282;SDS011;49407;51.388;0.048;2022-11-24T10:47:37;47.72;;;20.17;;
63282;SDS011;49407;51.388;0.048;2022-11-24T10:52:36;51.17;;;24.00;;
63282;SDS011;49407;51.388;0.048;2022-11-24T10:55:07;46.47;;;21.50;;
63282;SDS011;49407;51.388;0.048;2022-11-24T10:57:35;42.35;;;21.60;;
63282;SDS011;49407;51.388;0.048;2022-11-24T11:00:28;47.42;;;20.15;;
63282;SDS011;49407;51.388;0.048;2022-11-24T11:03:09;43.08;;;20.77;;
63282;SDS011;49407;51.388;0.048;2022-11-24T11:06:08;45.75;;;18.38;;
63282;SDS011;49407;51.388;0.048;2022-11-24T11:08:46;44.92;;;24.33;;
63282;SDS011;49407;51.388;0.048;2022-11-24T11:11:15;40.17;;;17.23;;
63282;SDS011;49407;51.388;0.048;2022-11-24T11:13:48;47.83;;;18.08;;
63282;SDS011;49407;51.388;0.048;2022-11-24T11:19:26;39.03;;;16.10;;
63282;SDS011;49407;51.388;0.048;2022-11-24T11:22:25;42.88;;;15.88;;
63282;SDS011;49407;51.388;0.048;2022-11-24T11:27:40;43.92;;;18.25;;
63282;SDS011;49407;51.388;0.048;2022-11-24T11:33:07;41.65;;;19.58;;
63282;SDS011;49407;51.388;0.048;2022-11-24T11:36:08;40.15;;;17.95;;
63282;SDS011;49407;51.388;0.048;2022-11-24T11:38:37;44.08;;;19.98;;
63282;SDS011;49407;51.388;0.048;2022-11-24T11:41:05;34.05;;;18.50;;
63282;SDS011;49407;51.388;0.048;2022-11-24T11:43:43;39.00;;;16.75;;
63282;SDS011;49407;51.388;0.048;2022-11-24T11:46:12;33.95;;;16.27;;
63282;SDS011;49407;51.388;0.048;2022-11-24T11:48:44;38.25;;;16.23;;
63282;SDS011;49407;51.388;0.048;2022-11-24T11:56:35;46.28;;;20.73;;
63282;SDS011;49407;51.388;0.048;2022-11-24T12:02:06;31.95;;;16.52;;
63282;SDS011;49407;51.388;0.048;2022-11-24T12:05:04;36.05;;;17.20;;
63282;SDS011;49407;51.388;0.048;2022-11-24T12:11:22;37.17;;;14.68;;
63282;SDS011;49407;51.388;0.048;2022-11-24T12:14:05;33.35;;;15.07;;
63282;SDS011;49407;51.388;0.048;2022-11-24T12:17:06;28.55;;;13.48;;
63282;SDS011;49407;51.388;0.048;2022-11-24T12:22:45;26.98;;;15.90;;
63282;SDS011;49407;51.388;0.048;2022-11-24T12:46:56;33.45;;;16.40;;
63282;SDS011;49407;51.388;0.048;2022-11-24T12:52:18;32.30;;;14.55;;
63282;SDS011;49407;51.388;0.048;2022-11-24T12:54:56;30.23;;;13.40;;
63282;SDS011;49407;51.388;0.048;2022-11-24T12:57:38;37.10;;;16.13;;
63282;SDS011;49407;51.388;0.048;2022-11-24T13:00:35;30.98;;;15.60;;
63282;SDS011;49407;51.388;0.048;2022-11-24T13:03:23;28.20;;;17.15;;
63282;SDS011;49407;51.388;0.048;2022-11-24T13:05:55;33.90;;;17.40;;
63282;SDS011;49407;51.388;0.048;2022-11-24T13:08:26;36.72;;;17.65;;
63282;SDS011;49407;51.388;0.048;2022-11-24T13:11:14;35.25;;;15.63;;
63282;SDS011;49407;51.388;0.048;2022-11-24T13:14:03;36.53;;;16.67;;
63282;SDS011;49407;51.388;0.048;2022-11-24T13:16:52;31.73;;;16.70;;
63282;SDS011;49407;51.388;0.048;2022-11-24T13:19:46;27.67;;;15.48;;
63282;SDS011;49407;51.388;0.048;2022-11-24T13:22:15;31.30;;;17.63;;
63282;SDS011;49407;51.388;0.048;2022-11-24T13:25:12;32.47;;;18.02;;
63282;SDS011;49407;51.388;0.048;2022-11-24T13:27:51;27.40;;;16.17;;
63282;SDS011;49407;51.388;0.048;2022-11-24T13:35:27;32.22;;;14.30;;
63282;SDS011;49407;51.388;0.048;2022-11-24T13:37:55;30.40;;;16.10;;
63282;SDS011;49407;51.388;0.048;2022-11-24T13:55:58;32.22;;;14.73;;
63282;SDS011;49407;51.388;0.048;2022-11-24T13:58:38;49.65;;;16.45;;
63282;SDS011;49407;51.388;0.048;2022-11-24T14:09:49;31.15;;;13.18;;
63282;SDS011;49407;51.388;0.048;2022-11-24T14:12:20;28.98;;;12.57;;
63282;SDS011;49407;51.388;0.048;2022-11-24T14:14:51;27.85;;;14.95;;
63282;SDS011;49407;51.388;0.048;2022-11-24T14:17:24;31.30;;;15.15;;
63282;SDS011;49407;51.388;0.048;2022-11-24T14:19:54;27.17;;;12.52;;
63282;SDS011;49407;51.388;0.048;2022-11-24T14:22:22;31.05;;;13.45;;
63282;SDS011;49407;51.388;0.048;2022-11-24T14:24:59;31.40;;;12.27;;
63282;SDS011;49407;51.388;0.048;2022-11-24T14:27:31;25.60;;;13.98;;
63282;SDS011;49407;51.388;0.048;2022-11-24T14:30:03;28.52;;;15.68;;
63282;SDS011;49407;51.388;0.048;2022-11-24T14:32:53;29.27;;;15.32;;
63282;SDS011;49407;51.388;0.048;2022-11-24T14:35:29;30.63;;;13.05;;
63282;SDS011;49407;51.388;0.048;2022-11-24T14:38:00;28.75;;;14.25;;
63282;SDS011;49407;51.388;0.048;2022-11-24T14:40:43;29.35;;;15.07;;
63282;SDS011;49407;51.388;0.048;2022-11-24T14:45:53;31.50;;;16.65;;
63282;SDS011;49407;51.388;0.048;2022-11-24T14:48:23;29.92;;;13.77;;
63282;SDS011;49407;51.388;0.048;2022-11-24T14:50:52;33.53;;;15.30;;
63282;SDS011;49407;51.388;0.048;2022-11-24T14:53:29;33.53;;;15.40;;
63282;SDS011;49407;51.388;0.048;2022-11-24T14:56:06;35.45;;;14.05;;
63282;SDS011;49407;51.388;0.048;2022-11-24T14:58:53;27.85;;;15.38;;
63282;SDS011;49407;51.388;0.048;2022-11-24T15:09:54;30.77;;;16.35;;
63282;SDS011;49407;51.388;0.048;2022-11-24T15:12:35;31.98;;;16.42;;
63282;SDS011;49407;51.388;0.048;2022-11-24T15:18:41;34.42;;;15.32;;
63282;SDS011;49407;51.388;0.048;2022-11-24T15:20:52;28.42;;;14.93;;
63282;SDS011;49407;51.388;0.048;2022-11-24T15:25:54;30.00;;;15.27;;
63282;SDS011;49407;51.388;0.048;2022-11-24T15:28:22;29.00;;;14.38;;
63282;SDS011;49407;51.388;0.048;2022-11-24T15:30:51;30.25;;;13.73;;
63282;SDS011;49407;51.388;0.048;2022-11-24T15:33:20;30.90;;;14.13;;
63282;SDS011;49407;51.388;0.048;2022-11-24T15:35:48;28.33;;;13.38;;
63282;SDS011;49407;51.388;0.048;2022-11-24T15:38:15;30.00;;;15.77;;
63282;SDS011;49407;51.388;0.048;2022-11-24T15:40:43;27.85;;;15.25;;
63282;SDS011;49407;51.388;0.048;2022-11-24T15:43:28;24.80;;;11.30;;
63282;SDS011;49407;51.388;0.048;2022-11-24T15:46:00;23.27;;;13.85;;
63282;SDS011;49407;51.388;0.048;2022-11-24T15:48:29;26.55;;;11.60;;
63282;SDS011;49407;51.388;0.048;2022-11-24T15:50:57;26.52;;;12.77;;
63282;SDS011;49407;51.388;0.048;2022-11-24T15:56:02;23.05;;;13.48;;
63282;SDS011;49407;51.388;0.048;2022-11-24T15:58:31;25.25;;;12.38;;
63282;SDS011;49407;51.388;0.048;2022-11-24T16:00:58;27.50;;;12.57;;
63282;SDS011;49407;51.388;0.048;2022-11-24T16:03:50;22.67;;;12.40;;
63282;SDS011;49407;51.388;0.048;2022-11-24T16:06:17;27.42;;;15.38;;
63282;SDS011;49407;51.388;0.048;2022-11-24T16:08:50;27.80;;;16.23;;
63282;SDS011;49407;51.388;0.048;2022-11-24T16:11:17;20.83;;;16.85;;
63282;SDS011;49407;51.388;0.048;2022-11-24T16:13:45;32.25;;;16.65;;
63282;SDS011;49407;51.388;0.048;2022-11-24T16:19:23;16.30;;;14.60;;
63282;SDS011;49407;51.388;0.048;2022-11-24T16:21:50;16.90;;;15.15;;
63282;SDS011;49407;51.388;0.048;2022-11-24T16:24:17;16.65;;;14.98;;
63282;SDS011;49407;51.388;0.048;2022-11-24T16:26:44;15.70;;;14.40;;
63282;SDS011;49407;51.388;0.048;2022-11-24T16:29:11;13.32;;;12.43;;
63282;SDS011;49407;51.388;0.048;2022-11-24T16:31:38;16.33;;;15.18;;
63282;SDS011;49407;51.388;0.048;2022-11-24T16:34:05;15.88;;;14.70;;
63282;SDS011;49407;51.388;0.048;2022-11-24T16:36:32;22.80;;;20.60;;
63282;SDS011;49407;51.388;0.048;2022-11-24T16:38:59;24.05;;;21.90;;
63282;SDS011;49407;51.388;0.048;2022-11-24T16:41:26;22.00;;;20.35;;
63282;SDS011;49407;51.388;0.048;2022-11-24T16:43:53;21.08;;;19.25;;
63282;SDS011;49407;51.388;0.048;2022-11-24T16:49:08;25.85;;;23.85;;
63282;SDS011;49407;51.388;0.048;2022-11-24T16:51:35;23.38;;;21.55;;
63282;SDS011;49407;51.388;0.048;2022-11-24T16:54:02;27.55;;;25.33;;
63282;SDS011;49407;51.388;0.048;2022-11-24T16:56:30;25.98;;;23.80;;
63282;SDS011;49407;51.388;0.048;2022-11-24T16:58:57;23.65;;;22.02;;
63282;SDS011;49407;51.388;0.048;2022-11-24T17:01:24;23.67;;;21.80;;
63282;SDS011;49407;51.388;0.048;2022-11-24T17:03:51;23.58;;;21.98;;
63282;SDS011;49407;51.388;0.048;2022-11-24T17:06:20;21.45;;;19.92;;
63282;SDS011;49407;51.388;0.048;2022-11-24T17:08:53;20.30;;;19.00;;
63282;SDS011;49407;51.388;0.048;2022-11-24T17:11:22;18.48;;;17.27;;
63282;SDS011;49407;51.388;0.048;2022-11-24T17:13:50;18.10;;;16.90;;
63282;SDS011;49407;51.388;0.048;2022-11-24T17:16:19;19.20;;;17.73;;
63282;SDS011;49407;51.388;0.048;2022-11-24T17:18:47;20.45;;;18.73;;
63282;SDS011;49407;51.388;0.048;2022-11-24T17:21:19;26.65;;;24.33;;